Boraq — CNA4470 — position and weather

sailwx.info

Track history (hours):
 
Tides and Currents Weather Stations Pressure Air Temp Water Temp Dewpoint Dewpoint Depression Visibility Wind Speed Wind Dir Waves Ship Positions

Boraq

Last reported at 2018-Jun-17 15:28 UTC. Time now 2018-Jun-18 19:04 UTC.
Position N 36°01' W 005°36'.

Length 74 m; draft 2.6 m.

Type: Ship. MMSI: 242048000.

Date/timePositionNaut miles runAvg speedWind from/ knotsBaromVisibWave heightAir tempDewpointWater temp
2018-Jun-17 15:28N 36°01' W 005°36'918.8
2018-Jun-17 15:00N 35°54' W 005°43'3 1.1
2018-Jun-17 12:35N 35°53' W 005°46'721.8
2018-Jun-17 12:14N 35°59' W 005°40'415.4
2018-Jun-17 12:00N 36°01' W 005°36'13 3.9
2018-Jun-17 08:46N 35°51' W 005°47'621.2
2018-Jun-17 08:29N 35°57' W 005°44'715.7
2018-Jun-17 08:00N 36°01' W 005°36'1 2.6
2018-Jun-17 07:30N 35°59' W 005°37'  
2018-Jun-10 15:19N 36°01' W 005°36'1 0.2
2018-Jun-10 08:14N 35°60' W 005°37'1 3.4
2018-Jun-10 07:49N 36°01' W 005°36'3 8.8
2018-Jun-10 07:30N 35°58' W 005°38'5 0.4
2018-Jun-09 16:34N 35°57' W 005°44'422.1
2018-Jun-09 16:25N 35°58' W 005°40'4 9.5
2018-Jun-09 16:00N 36°01' W 005°36'2 2.4
2018-Jun-09 15:01N 35°58' W 005°37'1 0.0
2018-Jun-07 16:29N 35°59' W 005°37'2 3.4
2018-Jun-07 16:00N 36°01' W 005°36'  
Track history (hours):
 
Tides and Currents Weather Stations Pressure Air Temp Water Temp Dewpoint Dewpoint Depression Visibility Wind Speed Wind Dir Waves Ship Positions

Boraq

Last reported at 2018-Jun-17 15:28 UTC. Time now 2018-Jun-18 19:04 UTC.
Position N 36°01' W 005°36'.

Length 74 m; draft 2.6 m.

Type: Ship. MMSI: 242048000.

Date/timePositionNaut miles runAvg speedWind from/ knotsBaromVisibWave heightAir tempDewpointWater temp
2018-Jun-17 15:28N 36°01' W 005°36'918.8
2018-Jun-17 15:00N 35°54' W 005°43'3 1.1
2018-Jun-17 12:35N 35°53' W 005°46'721.8
2018-Jun-17 12:14N 35°59' W 005°40'415.4
2018-Jun-17 12:00N 36°01' W 005°36'13 3.9
2018-Jun-17 08:46N 35°51' W 005°47'621.2
2018-Jun-17 08:29N 35°57' W 005°44'715.7
2018-Jun-17 08:00N 36°01' W 005°36'1 2.6
2018-Jun-17 07:30N 35°59' W 005°37'  
2018-Jun-10 15:19N 36°01' W 005°36'1 0.2
2018-Jun-10 08:14N 35°60' W 005°37'1 3.4
2018-Jun-10 07:49N 36°01' W 005°36'3 8.8
2018-Jun-10 07:30N 35°58' W 005°38'5 0.4
2018-Jun-09 16:34N 35°57' W 005°44'422.1
2018-Jun-09 16:25N 35°58' W 005°40'4 9.5
2018-Jun-09 16:00N 36°01' W 005°36'2 2.4
2018-Jun-09 15:01N 35°58' W 005°37'1 0.0
2018-Jun-07 16:29N 35°59' W 005°37'2 3.4
2018-Jun-07 16:00N 36°01' W 005°36'  

Dump ship's entire track history